createdAt,value
2023-04-01T00:01:51.619Z,11.73
2023-04-01T00:04:18.892Z,11.96
2023-04-01T00:06:46.274Z,12.05
2023-04-01T00:09:13.495Z,11.79
2023-04-01T00:11:40.918Z,11.70
2023-04-01T00:14:08.610Z,11.62
2023-04-01T00:16:36.134Z,11.59
2023-04-01T00:19:03.630Z,11.64
2023-04-01T00:21:31.275Z,11.76
2023-04-01T00:23:58.786Z,11.61
2023-04-01T00:26:26.304Z,11.81
2023-04-01T00:28:53.933Z,11.81
2023-04-01T00:31:21.605Z,11.93
2023-04-01T00:33:49.287Z,11.91
2023-04-01T00:36:22.832Z,11.71
2023-04-01T00:38:51.497Z,11.56
2023-04-01T00:41:20.498Z,11.68
2023-04-01T00:43:50.350Z,11.85
2023-04-01T00:46:17.913Z,11.92
2023-04-01T00:48:52.258Z,11.89
2023-04-01T00:51:28.634Z,11.59
2023-04-01T00:53:57.648Z,11.42
2023-04-01T00:57:01.907Z,11.45
2023-04-01T00:59:35.983Z,11.53
2023-04-01T01:02:04.367Z,11.43
2023-04-01T01:04:33.952Z,11.47
2023-04-01T01:07:01.134Z,11.66
2023-04-01T01:09:52.560Z,11.61
2023-04-01T01:12:24.292Z,11.66
2023-04-01T01:15:09.913Z,11.60
2023-04-01T01:18:06.688Z,11.65
2023-04-01T01:20:58.282Z,11.81
2023-04-01T01:24:14.861Z,11.57
2023-04-01T01:26:51.472Z,11.53
2023-04-01T01:29:28.168Z,11.59
2023-04-01T01:32:09.314Z,11.68
2023-04-01T01:35:17.397Z,11.41
2023-04-01T01:37:45.269Z,11.41
2023-04-01T01:40:13.874Z,11.77
2023-04-01T01:42:47.683Z,11.45
2023-04-01T01:45:18.884Z,11.20
2023-04-01T01:47:47.724Z,11.34
2023-04-01T01:50:15.411Z,11.00
2023-04-01T01:52:42.711Z,10.93
2023-04-01T01:55:31.252Z,11.11
2023-04-01T01:58:02.873Z,11.10
2023-04-01T02:00:30.945Z,11.11
2023-04-01T02:03:02.438Z,11.20
2023-04-01T02:05:31.839Z,11.20
2023-04-01T02:08:10.440Z,11.18
2023-04-01T02:10:42.201Z,11.20
2023-04-01T02:13:17.932Z,11.13
2023-04-01T02:15:47.908Z,11.20
2023-04-01T02:18:15.722Z,11.07
2023-04-01T02:20:43.700Z,11.16
2023-04-01T02:23:11.610Z,10.97
2023-04-01T02:25:40.528Z,10.96
2023-04-01T02:28:09.198Z,11.21
2023-04-01T02:30:39.448Z,11.18
2023-04-01T02:33:07.161Z,11.15
2023-04-01T02:35:38.265Z,11.23
2023-04-01T02:38:06.837Z,11.22
2023-04-01T02:41:04.665Z,11.43
2023-04-01T02:43:34.080Z,11.37
2023-04-01T02:46:02.882Z,11.38
2023-04-01T02:48:30.303Z,11.35
2023-04-01T02:50:57.556Z,11.31
2023-04-01T02:53:24.737Z,11.47
2023-04-01T02:55:52.824Z,11.36
2023-04-01T02:58:20.425Z,11.28
2023-04-01T03:00:47.867Z,11.25
2023-04-01T03:03:15.437Z,11.34
2023-04-01T03:05:42.801Z,11.13
2023-04-01T03:08:10.270Z,11.22
2023-04-01T03:10:37.567Z,11.27
2023-04-01T03:13:05.235Z,11.20
2023-04-01T03:15:32.751Z,11.27
2023-04-01T03:18:00.446Z,11.39
2023-04-01T03:20:27.759Z,11.27
2023-04-01T03:22:55.365Z,11.14
2023-04-01T03:25:22.660Z,11.08
2023-04-01T03:27:49.977Z,11.20
2023-04-01T03:30:17.420Z,11.00
2023-04-01T03:32:50.987Z,11.10
2023-04-01T03:35:18.448Z,10.95
2023-04-01T03:37:46.897Z,11.11
2023-04-01T03:40:14.186Z,10.79
2023-04-01T03:42:41.535Z,10.97
2023-04-01T03:45:10.247Z,11.03
2023-04-01T03:47:37.594Z,10.95
2023-04-01T03:50:06.376Z,10.88
2023-04-01T03:52:34.226Z,10.97
2023-04-01T03:55:02.472Z,11.05
2023-04-01T03:57:32.310Z,11.01
2023-04-01T04:00:05.957Z,11.12
2023-04-01T04:02:41.033Z,11.12
2023-04-01T04:05:09.115Z,11.42
2023-04-01T04:07:36.499Z,11.42
2023-04-01T04:10:07.338Z,11.27
2023-04-01T04:12:34.616Z,11.16
2023-04-01T04:15:02.162Z,11.15
2023-04-01T04:17:29.512Z,11.05
2023-04-01T04:19:57.264Z,11.07
2023-04-01T04:22:24.758Z,11.05
2023-04-01T04:24:52.177Z,11.14
2023-04-01T04:27:19.829Z,11.20
2023-04-01T04:30:01.027Z,11.11
2023-04-01T04:32:29.442Z,11.21
2023-04-01T04:34:57.588Z,11.08
2023-04-01T04:37:26.679Z,11.10
2023-04-01T04:39:54.324Z,11.22
2023-04-01T04:42:21.694Z,11.20
2023-04-01T04:44:49.803Z,11.39
2023-04-01T04:47:17.262Z,11.47
2023-04-01T04:49:44.588Z,11.25
2023-04-01T04:52:12.387Z,11.17
2023-04-01T04:54:39.604Z,11.34
2023-04-01T04:57:06.851Z,11.36
2023-04-01T04:59:41.180Z,11.38
2023-04-01T05:02:20.600Z,11.51
2023-04-01T05:04:48.468Z,11.38
2023-04-01T05:07:16.053Z,11.28
2023-04-01T05:09:44.043Z,11.37
2023-04-01T05:12:14.183Z,11.19
2023-04-01T05:14:56.962Z,11.44
2023-04-01T05:17:24.953Z,11.60
2023-04-01T05:19:53.697Z,11.59
2023-04-01T05:22:21.454Z,11.65
2023-04-01T05:24:49.182Z,11.58
2023-04-01T05:27:16.692Z,11.28
2023-04-01T05:29:44.305Z,11.12
2023-04-01T05:32:32.463Z,11.21
2023-04-01T05:34:59.818Z,11.24
2023-04-01T05:37:27.017Z,11.10
2023-04-01T05:39:55.842Z,11.22
2023-04-01T05:42:23.191Z,11.04
2023-04-01T05:44:50.670Z,11.02
2023-04-01T05:47:36.803Z,10.89
2023-04-01T05:50:05.404Z,10.96
2023-04-01T05:52:32.709Z,11.01
2023-04-01T05:55:01.277Z,11.12
2023-04-01T05:57:28.530Z,11.15
2023-04-01T05:59:56.013Z,11.24
2023-04-01T06:02:23.762Z,11.06
2023-04-01T06:04:58.829Z,11.16
2023-04-01T06:07:26.219Z,11.04
2023-04-01T06:09:53.603Z,11.10
2023-04-01T06:12:41.482Z,11.18
2023-04-01T06:15:18.827Z,11.13
2023-04-01T06:18:04.257Z,11.02
2023-04-01T06:20:51.774Z,11.42
2023-04-01T06:23:25.665Z,11.28
2023-04-01T06:26:12.163Z,11.03
2023-04-01T06:28:51.786Z,11.06
2023-04-01T06:31:27.156Z,11.22
2023-04-01T06:34:09.942Z,11.34
2023-04-01T06:36:48.407Z,11.32
2023-04-01T06:39:17.587Z,11.53
2023-04-01T06:42:08.389Z,11.31
2023-04-01T06:45:11.257Z,11.35
2023-04-01T06:48:06.002Z,11.38
2023-04-01T06:51:30.112Z,11.66
2023-04-01T06:54:19.540Z,11.57
2023-04-01T06:57:26.130Z,11.35
2023-04-01T06:59:55.949Z,11.44
2023-04-01T07:02:40.653Z,11.35
2023-04-01T07:05:08.523Z,11.27
2023-04-01T07:07:49.461Z,11.14
2023-04-01T07:10:21.470Z,11.43
2023-04-01T07:12:51.199Z,11.52
2023-04-01T07:15:51.638Z,11.67
2023-04-01T07:18:25.295Z,11.65
2023-04-01T07:20:54.420Z,11.71
2023-04-01T07:23:25.733Z,11.58
2023-04-01T07:26:05.703Z,11.46
2023-04-01T07:28:55.014Z,11.42
2023-04-01T07:32:07.672Z,11.53
2023-04-01T07:34:41.487Z,11.55
2023-04-01T07:37:23.967Z,11.53
2023-04-01T07:40:08.093Z,11.60
2023-04-01T07:42:43.508Z,11.56
2023-04-01T07:45:21.626Z,11.86
2023-04-01T07:47:59.698Z,11.50
2023-04-01T07:50:29.693Z,11.77
2023-04-01T07:53:00.385Z,11.73
2023-04-01T07:55:38.265Z,11.81
2023-04-01T07:58:09.632Z,11.90
2023-04-01T08:00:52.353Z,11.68
2023-04-01T08:03:54.574Z,11.77
2023-04-01T08:06:41.688Z,12.13
2023-04-01T08:09:34.644Z,12.02
2023-04-01T08:12:26.041Z,11.95
2023-04-01T08:15:22.462Z,11.89
2023-04-01T08:18:21.164Z,11.93
2023-04-01T08:20:54.385Z,12.10
2023-04-01T08:23:29.998Z,12.50
2023-04-01T08:26:09.101Z,12.44
2023-04-01T08:28:45.962Z,12.35
2023-04-01T08:31:25.973Z,12.26
2023-04-01T08:33:55.074Z,12.34
2023-04-01T08:36:27.835Z,12.43
2023-04-01T08:39:39.591Z,12.63
2023-04-01T08:42:14.460Z,12.80
2023-04-01T08:45:01.181Z,12.72
2023-04-01T08:47:40.129Z,12.56
2023-04-01T08:50:38.514Z,12.38
2023-04-01T08:53:19.648Z,12.40
2023-04-01T08:55:58.761Z,12.53
2023-04-01T08:58:48.102Z,12.85
2023-04-01T09:01:59.737Z,12.84
2023-04-01T09:05:13.440Z,12.58
2023-04-01T09:08:05.648Z,12.68
2023-04-01T09:10:53.931Z,12.81
2023-04-01T09:14:08.640Z,13.15
2023-04-01T09:17:17.851Z,12.59
2023-04-01T09:20:13.088Z,12.90
2023-04-01T09:23:08.520Z,13.04
2023-04-01T09:25:54.643Z,12.72
2023-04-01T09:28:56.552Z,13.01
2023-04-01T09:31:58.031Z,13.14
2023-04-01T09:34:55.730Z,12.99
2023-04-01T09:37:48.013Z,12.77
2023-04-01T09:40:31.338Z,13.14
2023-04-01T09:43:40.311Z,13.12
2023-04-01T09:46:15.841Z,13.17
2023-04-01T09:48:48.537Z,13.18
2023-04-01T09:51:43.128Z,13.60
2023-04-01T09:54:40.270Z,13.20
2023-04-01T09:57:20.118Z,13.11
2023-04-01T10:00:16.823Z,12.81
2023-04-01T10:03:11.756Z,12.86
2023-04-01T10:06:16.991Z,13.06
2023-04-01T10:09:06.065Z,13.31
2023-04-01T10:12:06.959Z,13.51
2023-04-01T10:14:58.948Z,13.31
2023-04-01T10:17:42.869Z,13.37
2023-04-01T10:20:33.094Z,13.29
2023-04-01T10:23:30.780Z,13.49
2023-04-01T10:26:13.310Z,13.78
2023-04-01T10:28:49.047Z,13.97
2023-04-01T10:32:04.293Z,13.93
2023-04-01T10:34:49.752Z,14.11
2023-04-01T10:37:33.700Z,14.28
2023-04-01T10:40:25.316Z,13.95
2023-04-01T10:43:36.076Z,13.82
2023-04-01T10:46:51.798Z,13.67
2023-04-01T10:49:41.730Z,13.80
2023-04-01T10:52:27.654Z,14.13
2023-04-01T10:56:03.841Z,14.02
2023-04-01T10:59:05.833Z,14.07
2023-04-01T11:02:29.219Z,13.54
2023-04-01T11:05:35.042Z,13.61
2023-04-01T11:08:49.362Z,13.88
2023-04-01T11:11:54.934Z,14.18
2023-04-01T11:14:47.378Z,14.34
2023-04-01T11:17:37.060Z,14.39
2023-04-01T11:20:11.149Z,14.24
2023-04-01T11:22:53.842Z,14.22
2023-04-01T11:25:46.926Z,14.38
2023-04-01T11:28:35.768Z,14.70
2023-04-01T11:31:30.424Z,15.04
2023-04-01T11:34:03.233Z,14.86
2023-04-01T11:36:41.145Z,14.49
2023-04-01T11:39:26.042Z,14.23
2023-04-01T11:42:06.560Z,14.13
2023-04-01T11:45:01.870Z,14.23
2023-04-01T11:47:37.431Z,14.22
2023-04-01T11:50:40.065Z,14.12
2023-04-01T11:53:19.746Z,14.15
2023-04-01T11:55:55.260Z,14.02
2023-04-01T11:58:43.365Z,14.18
2023-04-01T12:01:38.671Z,14.07
2023-04-01T12:04:16.732Z,14.23
2023-04-01T12:06:53.286Z,14.09
2023-04-01T12:09:32.469Z,13.99
2023-04-01T12:12:14.810Z,14.12
2023-04-01T12:15:04.058Z,14.36
2023-04-01T12:17:49.813Z,14.09
2023-04-01T12:20:40.209Z,14.11
2023-04-01T12:23:10.757Z,14.21
2023-04-01T12:25:59.741Z,14.20
2023-04-01T12:28:41.417Z,14.35
2023-04-01T12:31:29.813Z,14.49
2023-04-01T12:34:22.309Z,14.64
2023-04-01T12:37:04.832Z,14.78
2023-04-01T12:40:09.802Z,14.54
2023-04-01T12:42:49.401Z,14.65
2023-04-01T12:45:37.351Z,14.70
2023-04-01T12:48:26.238Z,14.95
2023-04-01T12:51:06.408Z,14.96
2023-04-01T12:54:11.679Z,14.88
2023-04-01T12:56:41.877Z,15.28
2023-04-01T12:59:18.312Z,15.28
2023-04-01T13:02:13.395Z,15.13
2023-04-01T13:04:40.994Z,15.28
2023-04-01T13:07:28.217Z,15.48
2023-04-01T13:10:02.644Z,15.84
2023-04-01T13:13:04.311Z,15.91
2023-04-01T13:15:34.256Z,15.93
2023-04-01T13:18:07.894Z,16.08
2023-04-01T13:20:38.105Z,15.84
2023-04-01T13:23:11.497Z,15.96
2023-04-01T13:26:13.712Z,16.01
2023-04-01T13:28:56.044Z,15.64
2023-04-01T13:31:51.274Z,15.64
2023-04-01T13:34:30.831Z,15.65
2023-04-01T13:37:16.477Z,15.94
2023-04-01T13:40:01.933Z,15.22
2023-04-01T13:42:39.172Z,14.87
2023-04-01T13:45:24.710Z,15.00
2023-04-01T13:48:10.489Z,14.90
2023-04-01T13:50:47.575Z,15.01
2023-04-01T13:53:24.156Z,15.06
2023-04-01T13:56:22.009Z,14.97
2023-04-01T13:59:09.135Z,14.96
2023-04-01T14:01:50.308Z,15.09
2023-04-01T14:04:59.340Z,15.26
2023-04-01T14:07:57.135Z,15.26
2023-04-01T14:10:36.537Z,15.04
2023-04-01T14:13:15.949Z,14.87
2023-04-01T14:15:54.191Z,14.65
2023-04-01T14:18:49.392Z,14.91
2023-04-01T14:21:22.419Z,14.81
2023-04-01T14:24:04.382Z,14.43
2023-04-01T14:26:50.716Z,14.47
2023-04-01T14:29:36.096Z,14.44
2023-04-01T14:32:28.870Z,14.42
2023-04-01T14:35:07.494Z,14.25
2023-04-01T14:37:50.035Z,14.49
2023-04-01T14:40:30.181Z,14.76
2023-04-01T14:43:00.525Z,14.54
2023-04-01T14:45:41.518Z,14.43
2023-04-01T14:48:23.270Z,14.39
2023-04-01T14:50:52.902Z,14.55
2023-04-01T14:53:28.075Z,14.54
2023-04-01T14:56:03.803Z,14.37
2023-04-01T14:58:45.104Z,14.26
2023-04-01T15:01:33.660Z,14.08
2023-04-01T15:04:39.997Z,14.09
2023-04-01T15:07:27.437Z,13.99
2023-04-01T15:10:08.178Z,13.99
2023-04-01T15:12:48.209Z,13.99
2023-04-01T15:15:46.053Z,13.91
2023-04-01T15:18:19.886Z,13.99
2023-04-01T15:20:53.251Z,13.79
2023-04-01T15:23:42.448Z,13.58
2023-04-01T15:26:40.941Z,13.57
2023-04-01T15:29:36.945Z,13.64
2023-04-01T15:32:25.563Z,13.37
2023-04-01T15:35:14.529Z,13.33
2023-04-01T15:38:08.478Z,12.80
2023-04-01T15:40:42.860Z,12.54
2023-04-01T15:43:40.808Z,12.37
2023-04-01T15:46:22.405Z,12.72
2023-04-01T15:49:25.946Z,13.03
2023-04-01T15:52:05.097Z,12.87
2023-04-01T15:54:50.483Z,12.57
2023-04-01T15:57:34.803Z,12.43
2023-04-01T16:00:11.982Z,12.43
2023-04-01T16:02:47.561Z,12.28
2023-04-01T16:05:36.771Z,12.00
2023-04-01T16:08:19.122Z,12.03
2023-04-01T16:10:58.749Z,11.99
2023-04-01T16:13:54.075Z,11.55
2023-04-01T16:16:39.772Z,11.32
2023-04-01T16:19:25.471Z,11.09
2023-04-01T16:22:01.969Z,11.38
2023-04-01T16:24:42.357Z,11.14
2023-04-01T16:27:25.951Z,11.38
2023-04-01T16:30:00.026Z,11.37
2023-04-01T16:32:51.635Z,11.44
2023-04-01T16:35:30.905Z,11.65
2023-04-01T16:38:05.610Z,11.67
2023-04-01T16:40:38.895Z,11.52
2023-04-01T16:43:21.253Z,11.68
2023-04-01T16:46:07.528Z,11.67
2023-04-01T16:48:53.863Z,11.55
2023-04-01T16:51:22.344Z,11.59
2023-04-01T16:54:13.754Z,11.71
2023-04-01T16:56:46.728Z,12.13
2023-04-01T16:59:23.356Z,12.48
2023-04-01T17:02:03.556Z,12.38
2023-04-01T17:04:36.069Z,12.52
2023-04-01T17:07:08.767Z,12.59
2023-04-01T17:09:57.389Z,12.13
2023-04-01T17:12:57.091Z,12.06
2023-04-01T17:15:39.059Z,12.26
2023-04-01T17:18:28.482Z,12.30
2023-04-01T17:21:01.508Z,12.05
2023-04-01T17:23:50.865Z,12.19
2023-04-01T17:26:26.929Z,12.01
2023-04-01T17:29:16.189Z,11.89
2023-04-01T17:32:03.819Z,11.54
2023-04-01T17:34:37.466Z,11.22
2023-04-01T17:37:23.083Z,11.53
2023-04-01T17:40:21.804Z,11.53
2023-04-01T17:43:03.430Z,11.94
2023-04-01T17:45:42.720Z,11.61
2023-04-01T17:48:31.254Z,11.17
2023-04-01T17:51:17.080Z,11.13
2023-04-01T17:54:07.232Z,11.34
2023-04-01T17:56:36.961Z,11.13
2023-04-01T17:59:29.072Z,11.18
2023-04-01T18:02:04.944Z,11.08
2023-04-01T18:04:47.513Z,10.89
2023-04-01T18:07:30.472Z,10.96
2023-04-01T18:10:11.731Z,10.93
2023-04-01T18:12:58.089Z,10.97
2023-04-01T18:15:34.087Z,11.09
2023-04-01T18:18:19.383Z,11.15
2023-04-01T18:21:04.344Z,11.15
2023-04-01T18:23:46.611Z,11.03
2023-04-01T18:26:28.296Z,11.43
2023-04-01T18:29:19.086Z,11.38
2023-04-01T18:31:53.061Z,11.21
2023-04-01T18:34:39.246Z,11.03
2023-04-01T18:37:45.432Z,11.22
2023-04-01T18:40:31.400Z,11.13
2023-04-01T18:43:16.157Z,11.08
2023-04-01T18:45:59.299Z,11.14
2023-04-01T18:48:40.392Z,11.24
2023-04-01T18:51:21.574Z,11.18
2023-04-01T18:54:01.297Z,11.19
2023-04-01T18:56:39.744Z,11.39
2023-04-01T18:59:20.196Z,11.13
2023-04-01T19:01:58.397Z,11.25
2023-04-01T19:04:37.190Z,11.10
2023-04-01T19:07:42.328Z,11.30
2023-04-01T19:10:15.412Z,11.38
2023-04-01T19:13:15.526Z,11.35
2023-04-01T19:16:08.562Z,11.52
2023-04-01T19:19:15.859Z,11.45
2023-04-01T19:21:47.992Z,11.18
2023-04-01T19:24:38.334Z,11.06
2023-04-01T19:27:12.390Z,11.33
2023-04-01T19:30:08.791Z,11.31
2023-04-01T19:32:48.224Z,11.19
2023-04-01T19:35:33.587Z,11.29
2023-04-01T19:38:28.619Z,11.44
2023-04-01T19:41:01.682Z,11.42
2023-04-01T19:43:31.853Z,11.46
2023-04-01T19:46:04.851Z,11.20
2023-04-01T19:48:50.758Z,11.16
2023-04-01T19:51:29.836Z,11.19
2023-04-01T19:54:03.949Z,11.12
2023-04-01T19:56:53.704Z,11.18
2023-04-01T19:59:30.803Z,10.90
2023-04-01T20:02:12.141Z,11.02
2023-04-01T20:04:52.076Z,10.85
2023-04-01T20:07:22.361Z,10.76
2023-04-01T20:10:07.583Z,10.79
2023-04-01T20:12:53.532Z,10.75
2023-04-01T20:15:32.644Z,10.92
2023-04-01T20:18:02.546Z,11.04
2023-04-01T20:20:31.090Z,11.27
2023-04-01T20:23:07.630Z,10.64
2023-04-01T20:25:43.036Z,10.53
2023-04-01T20:28:35.054Z,10.52
2023-04-01T20:31:16.786Z,10.80
2023-04-01T20:34:16.879Z,10.79
2023-04-01T20:37:03.606Z,10.86
2023-04-01T20:39:45.054Z,10.99
2023-04-01T20:42:12.124Z,10.65
2023-04-01T20:44:49.299Z,10.56
2023-04-01T20:47:19.472Z,10.62
2023-04-01T20:49:46.534Z,10.45
2023-04-01T20:52:13.688Z,10.53
2023-04-01T20:54:46.753Z,10.39
2023-04-01T20:57:18.317Z,10.37
2023-04-01T20:59:55.523Z,10.41
2023-04-01T21:02:43.013Z,10.53
2023-04-01T21:05:11.325Z,10.54
2023-04-01T21:07:46.140Z,10.48
2023-04-01T21:10:45.227Z,10.37
2023-04-01T21:13:28.822Z,10.32
2023-04-01T21:16:11.328Z,10.65
2023-04-01T21:18:57.029Z,10.69
2023-04-01T21:21:39.470Z,10.51
2023-04-01T21:24:45.122Z,10.36
2023-04-01T21:27:31.049Z,10.56
2023-04-01T21:30:30.523Z,10.51
2023-04-01T21:33:27.284Z,10.43
2023-04-01T21:36:13.377Z,10.28
2023-04-01T21:38:59.482Z,10.44
2023-04-01T21:41:44.962Z,10.63
2023-04-01T21:44:14.001Z,10.52
2023-04-01T21:47:09.955Z,10.40
2023-04-01T21:50:00.316Z,10.42
2023-04-01T21:53:01.298Z,10.48
2023-04-01T21:55:59.630Z,10.56
2023-04-01T21:59:01.965Z,10.43
2023-04-01T22:01:50.561Z,10.46
2023-04-01T22:04:35.628Z,10.68
2023-04-01T22:07:22.519Z,10.53
2023-04-01T22:10:15.106Z,10.62
2023-04-01T22:12:56.046Z,10.30
2023-04-01T22:15:41.945Z,10.44
2023-04-01T22:18:17.297Z,10.22
2023-04-01T22:21:06.094Z,10.13
2023-04-01T22:23:45.770Z,10.42
2023-04-01T22:26:33.825Z,10.26
2023-04-01T22:29:16.729Z,10.37
2023-04-01T22:31:53.383Z,10.28
2023-04-01T22:34:34.484Z,10.23
2023-04-01T22:37:04.670Z,10.20
2023-04-01T22:39:57.476Z,10.46
2023-04-01T22:42:45.523Z,10.13
2023-04-01T22:45:23.813Z,10.26
2023-04-01T22:48:13.128Z,10.23
2023-04-01T22:51:19.472Z,10.20
2023-04-01T22:54:07.569Z,10.20
2023-04-01T22:56:51.145Z,9.98
2023-04-01T22:59:33.735Z,10.18
2023-04-01T23:02:08.143Z,10.10
2023-04-01T23:04:40.196Z,9.99
2023-04-01T23:07:50.232Z,10.00
2023-04-01T23:10:26.377Z,9.97
2023-04-01T23:12:56.253Z,9.93
2023-04-01T23:15:23.994Z,9.92
2023-04-01T23:18:01.687Z,9.97
2023-04-01T23:20:41.357Z,10.00
2023-04-01T23:23:27.189Z,9.84
2023-04-01T23:26:07.407Z,9.90
2023-04-01T23:28:37.641Z,9.94
2023-04-01T23:31:04.854Z,10.17
2023-04-01T23:33:32.632Z,10.27
2023-04-01T23:36:11.879Z,9.97
2023-04-01T23:38:43.883Z,9.93
2023-04-01T23:41:21.301Z,10.02
2023-04-01T23:44:25.906Z,9.88
2023-04-01T23:46:53.941Z,9.83
2023-04-01T23:49:31.796Z,9.87
2023-04-01T23:52:01.303Z,9.82
2023-04-01T23:54:34.910Z,9.71
2023-04-01T23:57:12.154Z,9.74
2023-04-01T23:59:39.858Z,9.91
